LIBF/FOG METAR and TAF weather

Enter ICAO airport designator
Station Type Date Time Source
LIBF METAR 2021/07/30 06:50 UTC NOAA

LIBF 300650Z 30006KT 270V330 CAVOK 31/11 Q1012


Station Type Date Time Source
LIBF Decoded METAR 2021/07/30 06:50 UTC NOAA

Station name not available
Jul 30, 2021 - 02:50 AM EDT / 2021.07.30 0650 UTC
Wind: from the WNW (300 degrees) at 7 MPH (6 KT) (direction variable):0
Visibility: greater than 7 mile(s):0
Temperature: 87 F (31 C)
Dew Point: 51 F (11 C)
Relative Humidity: 29%
Pressure (altimeter): 29.88 in. Hg (1012 hPa)
ob: LIBF 300650Z 30006KT 270V330 CAVOK 31/11 Q1012
cycle: 7

Station Type Date Time Source
LIBF TAF 2021/07/30 07:00 UTC NOAA

TAF LIBF 300647Z 3007/3106 25008KT CAVOK
BECMG 3009/3011 09015KT
BECMG 3018/3020 VRB04KT

Example: see airport list